KPMD/PMD METAR and TAF weather

Enter ICAO airport designator
Station Type Date Time Source
KPMD METAR 2022/12/04 04:53 UTC NOAA

KPMD 040453Z 00000KT 10SM CLR 09/06 A3011 RMK AO2 SLP190 T00940061


Station Type Date Time Source
KPMD Decoded METAR 2022/12/04 04:53 UTC NOAA

PALMDALE PROD FLIGHT PLANT, CA, United States (KPMD) 34-38N 118-05W 780M
Dec 03, 2022 - 11:53 PM EST / 2022.12.04 0453 UTC
Wind: Calm:0
Visibility: 10 mile(s):0
Sky conditions: clear
Temperature: 48.9 F (9.4 C)
Dew Point: 43.0 F (6.1 C)
Relative Humidity: 79%
Pressure (altimeter): 30.11 in. Hg (1019 hPa)
ob: KPMD 040453Z 00000KT 10SM CLR 09/06 A3011 RMK AO2 SLP190 T00940061
cycle: 5

Station Type Date Time Source
KPMD TAF 2022/12/03 18:57 UTC NOAA

TAF KPMD 031754Z 0318/0418 00000KT P6SM SKC
FM040000 22005KT P6SM OVC150

Example: see airport list